»·PEaware :: JBU2437 KLAS-KSAN

JBU2437 :: KLAS-KSAN

FLIGHT INFORMATION

Flight Status: Arrived
Operator:
JetBlue Airways
More flights by this operator :: More flights under this callsign
Pilot: Miguel P. (25458)
Aircraft: AIRBUS A321
(A321)
More flights by this aircraft type
Origin: KLAS McCarran Intl
United States
Destination: KSAN San Diego Intl-Lindbergh
United States
More flights between these airports :: More routes between these airports
Route: +BOACH8 LVELL LUCKI1
File this flight plan on PilotEdge
Remarks:
Altitude:
(Current/Filed)
28,000ft
Speed:
(Current/Filed)
465kts
Departed: 17-Mar-20 08:36 AM
Arrived: 17-Mar-20 09:23 AM
Distance/Time
Traveled:
225nm/0:47
Distance/Time
To Go:
Arrived

Flight Plot

Page will automatically refresh every two minutes.

Flight plan parsing failed; only flown route is shown


Map Options




Map Legend


Flown Route
Filed Route
Departure Airport
Arrival Airport
Navaid (VOR, NDB)
Fix

Horizontal Profiles

Position Reports

Time Latitude Longitude Heading Altitude Ground
Speed
17-Mar-20 08:16 36.085187 -115.138469 359 2061ft 0kts
17-Mar-20 08:17 36.085187 -115.138469 359 2061ft 0kts
17-Mar-20 08:18 36.085187 -115.138469 359 2061ft 0kts
17-Mar-20 08:19 36.085187 -115.138469 359 2061ft 0kts
17-Mar-20 08:20 36.085187 -115.138469 359 2061ft 0kts
17-Mar-20 08:21 36.085187 -115.138469 359 2061ft 0kts
17-Mar-20 08:22 36.085187 -115.138469 359 2061ft 0kts
17-Mar-20 08:23 36.085187 -115.138469 359 2061ft 0kts
17-Mar-20 08:24 36.085187 -115.138469 359 2061ft 0kts
17-Mar-20 08:25 36.085187 -115.138469 359 2061ft 0kts
17-Mar-20 08:26 36.085187 -115.138469 359 2061ft 0kts
17-Mar-20 08:27 36.085138 -115.138449 359 2061ft 2kts
17-Mar-20 08:28 36.084544 -115.138465 359 2063ft 2kts
17-Mar-20 08:29 36.084270 -115.138465 358 2063ft 0kts
17-Mar-20 08:30 36.084308 -115.138469 354 2063ft 1kts
17-Mar-20 08:31 36.084082 -115.134353 136 2052ft 14kts
17-Mar-20 08:32 36.080098 -115.132925 180 2059ft 14kts
17-Mar-20 08:33 36.077562 -115.129179 90 2052ft 26kts
17-Mar-20 08:34 36.076428 -115.121837 255 2041ft 27kts
17-Mar-20 08:35 36.076951 -115.166874 267 3000ft 179kts
17-Mar-20 08:36 36.074209 -115.240336 244 4207ft 248kts
17-Mar-20 08:37 36.017043 -115.280924 200 6722ft 261kts
17-Mar-20 08:38 35.946613 -115.305052 187 7678ft 269kts
17-Mar-20 08:39 35.872506 -115.313431 185 10503ft 275kts
17-Mar-20 08:40 35.785746 -115.307328 177 11476ft 346kts
17-Mar-20 08:41 35.683559 -115.296275 180 13416ft 377kts
17-Mar-20 08:42 35.577678 -115.298827 185 15935ft 383kts
17-Mar-20 08:44 35.470096 -115.303103 185 18214ft 390kts
17-Mar-20 08:45 35.360229 -115.307423 185 20115ft 400kts
17-Mar-20 08:46 35.247301 -115.311873 185 21781ft 410kts
17-Mar-20 08:47 35.131397 -115.316437 185 23174ft 420kts
17-Mar-20 08:48 35.012989 -115.321072 185 24387ft 429kts
17-Mar-20 08:49 34.893116 -115.325771 185 25852ft 428kts
17-Mar-20 08:50 34.774847 -115.337719 195 27351ft 419kts
17-Mar-20 08:51 34.664634 -115.381820 202 27998ft 414kts
17-Mar-20 08:52 34.555979 -115.429449 202 28006ft 414kts
17-Mar-20 08:53 34.447045 -115.477013 202 28006ft 413kts
17-Mar-20 08:54 34.338891 -115.526200 206 28006ft 412kts
17-Mar-20 08:55 34.238510 -115.593572 210 28005ft 412kts
17-Mar-20 08:56 34.133353 -115.651074 203 28005ft 412kts
17-Mar-20 08:57 34.026077 -115.702275 203 28006ft 413kts
17-Mar-20 08:58 33.918921 -115.752761 203 28005ft 414kts
17-Mar-20 08:59 33.811784 -115.805172 204 28005ft 413kts
17-Mar-20 09:00 33.704483 -115.856409 203 28005ft 414kts
17-Mar-20 09:00 33.614989 -115.898150 203 27321ft 410kts
17-Mar-20 09:01 33.513979 -115.959128 220 24228ft 410kts
17-Mar-20 09:03 33.435035 -116.082619 232 21403ft 389kts
17-Mar-20 09:03 33.384628 -116.169538 232 19533ft 375kts
17-Mar-20 09:04 33.320812 -116.257838 214 18723ft 322kts
17-Mar-20 09:06 33.233300 -116.311309 208 17225ft 293kts
17-Mar-20 09:06 33.174433 -116.345798 208 16302ft 274kts
17-Mar-20 09:08 33.097082 -116.390962 208 15163ft 261kts
17-Mar-20 09:08 33.042835 -116.422631 208 14332ft 259kts
17-Mar-20 09:09 32.982753 -116.467664 221 13263ft 254kts
17-Mar-20 09:10 32.929132 -116.521911 221 11985ft 251kts
17-Mar-20 09:11 32.875456 -116.575667 220 10606ft 255kts
17-Mar-20 09:12 32.821613 -116.629603 221 9800ft 247kts
17-Mar-20 09:13 32.771149 -116.685311 234 8444ft 251kts
17-Mar-20 09:14 32.735871 -116.758332 240 7030ft 254kts
17-Mar-20 09:15 32.703150 -116.832212 247 5983ft 256kts
17-Mar-20 09:16 32.681028 -116.904273 250 5778ft 221kts
17-Mar-20 09:17 32.681769 -116.977986 284 3880ft 220kts
17-Mar-20 09:18 32.696832 -117.038692 284 2661ft 152kts
17-Mar-20 09:19 32.708498 -117.086681 284 2033ft 151kts
17-Mar-20 09:20 32.719907 -117.134092 286 1262ft 149kts
17-Mar-20 09:21 32.731422 -117.180970 285 59ft 142kts
17-Mar-20 09:22 32.734392 -117.202548 205 19ft 21kts
17-Mar-20 09:23 32.734139 -117.203313 269 19ft 0kts
17-Mar-20 09:24 32.734139 -117.203313 269 19ft 0kts
17-Mar-20 09:25 32.734139 -117.203313 269 19ft 0kts
17-Mar-20 09:26 32.734139 -117.203313 269 19ft 0kts
17-Mar-20 09:27 32.734139 -117.203313 269 19ft 0kts
17-Mar-20 09:28 32.734139 -117.203313 269 19ft 0kts
17-Mar-20 09:29 32.734139 -117.203313 269 19ft 0kts
17-Mar-20 09:30 32.734139 -117.203313 269 19ft 0kts
17-Mar-20 09:31 32.734139 -117.203313 269 19ft 0kts
17-Mar-20 09:32 32.734139 -117.203313 269 19ft 0kts
17-Mar-20 09:33 32.734139 -117.203313 269 19ft 0kts
17-Mar-20 09:34 32.734139 -117.203313 269 19ft 0kts
17-Mar-20 09:35 32.734139 -117.203313 269 19ft 0kts
17-Mar-20 09:36 32.734139 -117.203313 269 19ft 0kts
17-Mar-20 09:37 32.734139 -117.203313 269 19ft 0kts

Navigation Log

Ident Type
Flight plan parsing failed, navigation log unavailable